sensor_id;sensor_type;location;lat;lon;timestamp;P1;durP1;ratioP1;P2;durP2;ratioP2
39882;SDS011;55824;52.220;21.040;2023-03-01T00:00:21;15.10;;;11.25;;
39882;SDS011;55824;52.220;21.040;2023-03-01T00:02:47;15.40;;;11.50;;
39882;SDS011;55824;52.220;21.040;2023-03-01T00:05:13;13.07;;;11.13;;
39882;SDS011;55824;52.220;21.040;2023-03-01T00:07:39;14.70;;;11.80;;
39882;SDS011;55824;52.220;21.040;2023-03-01T00:10:05;15.48;;;11.27;;
39882;SDS011;55824;52.220;21.040;2023-03-01T00:12:31;14.98;;;11.93;;
39882;SDS011;55824;52.220;21.040;2023-03-01T00:14:57;15.18;;;11.52;;
39882;SDS011;55824;52.220;21.040;2023-03-01T00:17:23;15.75;;;12.35;;
39882;SDS011;55824;52.220;21.040;2023-03-01T00:19:49;14.63;;;11.93;;
39882;SDS011;55824;52.220;21.040;2023-03-01T00:22:15;16.58;;;12.43;;
39882;SDS011;55824;52.220;21.040;2023-03-01T00:24:41;16.30;;;12.02;;
39882;SDS011;55824;52.220;21.040;2023-03-01T00:27:07;14.18;;;11.43;;
39882;SDS011;55824;52.220;21.040;2023-03-01T00:29:33;15.32;;;12.18;;
39882;SDS011;55824;52.220;21.040;2023-03-01T00:31:59;15.25;;;12.00;;
39882;SDS011;55824;52.220;21.040;2023-03-01T00:34:25;16.08;;;13.25;;
39882;SDS011;55824;52.220;21.040;2023-03-01T00:36:51;13.98;;;11.93;;
39882;SDS011;55824;52.220;21.040;2023-03-01T00:39:17;16.48;;;13.45;;
39882;SDS011;55824;52.220;21.040;2023-03-01T00:41:43;16.55;;;13.35;;
39882;SDS011;55824;52.220;21.040;2023-03-01T00:44:09;17.92;;;14.25;;
39882;SDS011;55824;52.220;21.040;2023-03-01T00:46:35;18.92;;;13.85;;
39882;SDS011;55824;52.220;21.040;2023-03-01T00:49:02;17.63;;;13.60;;
39882;SDS011;55824;52.220;21.040;2023-03-01T00:51:29;15.95;;;13.15;;
39882;SDS011;55824;52.220;21.040;2023-03-01T00:53:57;18.20;;;14.18;;
39882;SDS011;55824;52.220;21.040;2023-03-01T00:56:23;18.02;;;13.85;;
39882;SDS011;55824;52.220;21.040;2023-03-01T00:58:49;16.15;;;13.57;;
39882;SDS011;55824;52.220;21.040;2023-03-01T01:01:20;18.20;;;13.60;;
39882;SDS011;55824;52.220;21.040;2023-03-01T01:06:22;17.77;;;13.40;;
39882;SDS011;55824;52.220;21.040;2023-03-01T01:08:48;19.65;;;14.98;;
39882;SDS011;55824;52.220;21.040;2023-03-01T01:11:15;18.20;;;13.88;;
39882;SDS011;55824;52.220;21.040;2023-03-01T01:13:41;17.58;;;14.05;;
39882;SDS011;55824;52.220;21.040;2023-03-01T01:16:07;17.90;;;14.30;;
39882;SDS011;55824;52.220;21.040;2023-03-01T01:18:34;17.70;;;14.02;;
39882;SDS011;55824;52.220;21.040;2023-03-01T01:21:03;17.05;;;13.38;;
39882;SDS011;55824;52.220;21.040;2023-03-01T01:23:30;16.67;;;14.43;;
39882;SDS011;55824;52.220;21.040;2023-03-01T01:25:56;18.45;;;14.20;;
39882;SDS011;55824;52.220;21.040;2023-03-01T01:28:22;17.88;;;13.75;;
39882;SDS011;55824;52.220;21.040;2023-03-01T01:30:48;16.95;;;13.52;;
39882;SDS011;55824;52.220;21.040;2023-03-01T01:33:14;16.95;;;14.38;;
39882;SDS011;55824;52.220;21.040;2023-03-01T01:35:40;17.58;;;14.55;;
39882;SDS011;55824;52.220;21.040;2023-03-01T01:38:06;16.50;;;13.43;;
39882;SDS011;55824;52.220;21.040;2023-03-01T01:40:32;17.90;;;13.52;;
39882;SDS011;55824;52.220;21.040;2023-03-01T01:42:58;18.48;;;14.02;;
39882;SDS011;55824;52.220;21.040;2023-03-01T01:47:50;16.98;;;13.50;;
39882;SDS011;55824;52.220;21.040;2023-03-01T01:50:16;16.80;;;14.07;;
39882;SDS011;55824;52.220;21.040;2023-03-01T01:52:44;14.95;;;11.95;;
39882;SDS011;55824;52.220;21.040;2023-03-01T01:55:11;18.33;;;13.48;;
39882;SDS011;55824;52.220;21.040;2023-03-01T01:57:46;15.68;;;13.35;;
39882;SDS011;55824;52.220;21.040;2023-03-01T02:00:14;17.33;;;13.52;;
39882;SDS011;55824;52.220;21.040;2023-03-01T02:02:41;16.20;;;13.18;;
39882;SDS011;55824;52.220;21.040;2023-03-01T02:05:18;16.05;;;12.75;;
39882;SDS011;55824;52.220;21.040;2023-03-01T02:07:45;17.08;;;13.73;;
39882;SDS011;55824;52.220;21.040;2023-03-01T02:10:12;16.90;;;14.10;;
39882;SDS011;55824;52.220;21.040;2023-03-01T02:17:49;16.17;;;13.23;;
39882;SDS011;55824;52.220;21.040;2023-03-01T02:22:51;15.77;;;12.70;;
39882;SDS011;55824;52.220;21.040;2023-03-01T02:30:44;15.57;;;12.68;;
39882;SDS011;55824;52.220;21.040;2023-03-01T02:33:30;17.02;;;13.60;;
39882;SDS011;55824;52.220;21.040;2023-03-01T02:35:57;16.45;;;13.13;;
39882;SDS011;55824;52.220;21.040;2023-03-01T02:38:24;15.90;;;12.90;;
39882;SDS011;55824;52.220;21.040;2023-03-01T02:40:50;15.45;;;12.77;;
39882;SDS011;55824;52.220;21.040;2023-03-01T02:43:17;17.33;;;12.57;;
39882;SDS011;55824;52.220;21.040;2023-03-01T02:45:50;15.10;;;12.20;;
39882;SDS011;55824;52.220;21.040;2023-03-01T02:48:18;16.80;;;13.18;;
39882;SDS011;55824;52.220;21.040;2023-03-01T02:53:15;14.93;;;12.18;;
39882;SDS011;55824;52.220;21.040;2023-03-01T02:55:42;16.58;;;12.57;;
39882;SDS011;55824;52.220;21.040;2023-03-01T02:58:08;18.08;;;13.48;;
39882;SDS011;55824;52.220;21.040;2023-03-01T03:00:39;16.90;;;12.60;;
39882;SDS011;55824;52.220;21.040;2023-03-01T03:03:10;15.50;;;12.45;;
39882;SDS011;55824;52.220;21.040;2023-03-01T03:05:38;17.45;;;13.80;;
39882;SDS011;55824;52.220;21.040;2023-03-01T03:08:04;18.25;;;13.20;;
39882;SDS011;55824;52.220;21.040;2023-03-01T03:10:33;16.20;;;13.35;;
39882;SDS011;55824;52.220;21.040;2023-03-01T03:13:01;16.35;;;12.90;;
39882;SDS011;55824;52.220;21.040;2023-03-01T03:15:27;16.05;;;13.68;;
39882;SDS011;55824;52.220;21.040;2023-03-01T03:17:53;15.48;;;13.35;;
39882;SDS011;55824;52.220;21.040;2023-03-01T03:20:20;18.67;;;13.85;;
39882;SDS011;55824;52.220;21.040;2023-03-01T03:22:48;15.88;;;13.43;;
39882;SDS011;55824;52.220;21.040;2023-03-01T03:25:15;15.70;;;13.38;;
39882;SDS011;55824;52.220;21.040;2023-03-01T03:27:42;15.90;;;13.38;;
39882;SDS011;55824;52.220;21.040;2023-03-01T03:30:09;17.85;;;13.43;;
39882;SDS011;55824;52.220;21.040;2023-03-01T03:32:37;16.17;;;12.95;;
39882;SDS011;55824;52.220;21.040;2023-03-01T03:35:04;19.17;;;14.23;;
39882;SDS011;55824;52.220;21.040;2023-03-01T03:37:36;17.63;;;13.93;;
39882;SDS011;55824;52.220;21.040;2023-03-01T03:40:22;17.80;;;13.73;;
39882;SDS011;55824;52.220;21.040;2023-03-01T03:42:48;17.95;;;13.43;;
39882;SDS011;55824;52.220;21.040;2023-03-01T03:45:14;16.42;;;12.70;;
39882;SDS011;55824;52.220;21.040;2023-03-01T03:47:40;17.85;;;14.32;;
39882;SDS011;55824;52.220;21.040;2023-03-01T03:50:07;16.67;;;13.48;;
39882;SDS011;55824;52.220;21.040;2023-03-01T03:52:33;16.40;;;12.82;;
39882;SDS011;55824;52.220;21.040;2023-03-01T03:54:59;16.48;;;12.57;;
39882;SDS011;55824;52.220;21.040;2023-03-01T03:57:25;18.80;;;13.45;;
39882;SDS011;55824;52.220;21.040;2023-03-01T03:59:51;18.90;;;14.50;;
39882;SDS011;55824;52.220;21.040;2023-03-01T04:02:17;16.70;;;14.18;;
39882;SDS011;55824;52.220;21.040;2023-03-01T04:04:47;17.95;;;13.02;;
39882;SDS011;55824;52.220;21.040;2023-03-01T04:07:14;18.45;;;14.10;;
39882;SDS011;55824;52.220;21.040;2023-03-01T04:09:41;15.65;;;12.52;;
39882;SDS011;55824;52.220;21.040;2023-03-01T04:12:07;16.23;;;12.32;;
39882;SDS011;55824;52.220;21.040;2023-03-01T04:14:33;16.42;;;13.27;;
39882;SDS011;55824;52.220;21.040;2023-03-01T04:16:59;17.65;;;13.82;;
39882;SDS011;55824;52.220;21.040;2023-03-01T04:19:26;17.90;;;13.18;;
39882;SDS011;55824;52.220;21.040;2023-03-01T04:21:52;17.83;;;13.88;;
39882;SDS011;55824;52.220;21.040;2023-03-01T04:24:18;15.52;;;13.05;;
39882;SDS011;55824;52.220;21.040;2023-03-01T04:26:44;18.67;;;14.05;;
39882;SDS011;55824;52.220;21.040;2023-03-01T04:29:10;16.70;;;13.27;;
39882;SDS011;55824;52.220;21.040;2023-03-01T04:31:36;17.35;;;14.75;;
39882;SDS011;55824;52.220;21.040;2023-03-01T04:34:02;16.58;;;13.55;;
39882;SDS011;55824;52.220;21.040;2023-03-01T04:36:28;16.48;;;13.35;;
39882;SDS011;55824;52.220;21.040;2023-03-01T04:38:55;15.48;;;12.13;;
39882;SDS011;55824;52.220;21.040;2023-03-01T04:41:22;17.50;;;13.43;;
39882;SDS011;55824;52.220;21.040;2023-03-01T04:43:48;17.60;;;13.23;;
39882;SDS011;55824;52.220;21.040;2023-03-01T04:46:15;15.65;;;12.90;;
39882;SDS011;55824;52.220;21.040;2023-03-01T04:48:42;16.77;;;13.48;;
39882;SDS011;55824;52.220;21.040;2023-03-01T04:51:09;18.33;;;14.02;;
39882;SDS011;55824;52.220;21.040;2023-03-01T04:53:38;17.58;;;13.25;;
39882;SDS011;55824;52.220;21.040;2023-03-01T04:56:04;17.83;;;13.23;;
39882;SDS011;55824;52.220;21.040;2023-03-01T04:58:31;18.42;;;13.90;;
39882;SDS011;55824;52.220;21.040;2023-03-01T05:00:57;17.42;;;13.57;;
39882;SDS011;55824;52.220;21.040;2023-03-01T05:03:23;17.00;;;14.23;;
39882;SDS011;55824;52.220;21.040;2023-03-01T05:05:50;19.25;;;14.35;;
39882;SDS011;55824;52.220;21.040;2023-03-01T05:08:16;17.85;;;13.65;;
39882;SDS011;55824;52.220;21.040;2023-03-01T05:10:46;19.65;;;14.77;;
39882;SDS011;55824;52.220;21.040;2023-03-01T05:13:13;17.38;;;13.82;;
39882;SDS011;55824;52.220;21.040;2023-03-01T05:15:46;19.60;;;15.23;;
39882;SDS011;55824;52.220;21.040;2023-03-01T05:18:12;18.85;;;14.18;;
39882;SDS011;55824;52.220;21.040;2023-03-01T05:20:38;17.58;;;14.02;;
39882;SDS011;55824;52.220;21.040;2023-03-01T05:23:05;20.38;;;14.63;;
39882;SDS011;55824;52.220;21.040;2023-03-01T05:25:32;16.95;;;13.77;;
39882;SDS011;55824;52.220;21.040;2023-03-01T05:27:59;19.75;;;15.38;;
39882;SDS011;55824;52.220;21.040;2023-03-01T05:30:29;19.55;;;14.38;;
39882;SDS011;55824;52.220;21.040;2023-03-01T05:32:55;17.13;;;14.32;;
39882;SDS011;55824;52.220;21.040;2023-03-01T05:35:21;18.00;;;14.20;;
39882;SDS011;55824;52.220;21.040;2023-03-01T05:37:47;20.27;;;14.75;;
39882;SDS011;55824;52.220;21.040;2023-03-01T05:40:15;18.60;;;13.45;;
39882;SDS011;55824;52.220;21.040;2023-03-01T05:42:45;18.02;;;14.10;;
39882;SDS011;55824;52.220;21.040;2023-03-01T05:45:11;19.08;;;14.07;;
39882;SDS011;55824;52.220;21.040;2023-03-01T05:47:38;16.27;;;12.65;;
39882;SDS011;55824;52.220;21.040;2023-03-01T05:50:08;19.05;;;13.75;;
39882;SDS011;55824;52.220;21.040;2023-03-01T05:52:34;18.20;;;13.93;;
39882;SDS011;55824;52.220;21.040;2023-03-01T05:55:00;19.40;;;14.30;;
39882;SDS011;55824;52.220;21.040;2023-03-01T05:57:27;16.85;;;14.07;;
39882;SDS011;55824;52.220;21.040;2023-03-01T05:59:53;18.27;;;14.05;;
39882;SDS011;55824;52.220;21.040;2023-03-01T06:02:19;18.85;;;13.95;;
39882;SDS011;55824;52.220;21.040;2023-03-01T06:04:45;19.13;;;14.77;;
39882;SDS011;55824;52.220;21.040;2023-03-01T06:07:11;17.42;;;14.00;;
39882;SDS011;55824;52.220;21.040;2023-03-01T06:09:37;18.67;;;14.68;;
39882;SDS011;55824;52.220;21.040;2023-03-01T06:12:03;16.95;;;13.30;;
39882;SDS011;55824;52.220;21.040;2023-03-01T06:14:29;17.13;;;13.70;;
39882;SDS011;55824;52.220;21.040;2023-03-01T06:16:55;17.65;;;14.00;;
39882;SDS011;55824;52.220;21.040;2023-03-01T06:19:21;16.60;;;13.85;;
39882;SDS011;55824;52.220;21.040;2023-03-01T06:21:47;18.70;;;14.70;;
39882;SDS011;55824;52.220;21.040;2023-03-01T06:24:13;17.80;;;13.77;;
39882;SDS011;55824;52.220;21.040;2023-03-01T06:26:39;17.33;;;13.80;;
39882;SDS011;55824;52.220;21.040;2023-03-01T06:29:05;17.92;;;14.35;;
39882;SDS011;55824;52.220;21.040;2023-03-01T06:31:32;18.08;;;14.10;;
39882;SDS011;55824;52.220;21.040;2023-03-01T06:33:58;18.85;;;14.10;;
39882;SDS011;55824;52.220;21.040;2023-03-01T06:36:24;18.20;;;13.82;;
39882;SDS011;55824;52.220;21.040;2023-03-01T06:38:50;17.67;;;14.18;;
39882;SDS011;55824;52.220;21.040;2023-03-01T06:41:16;18.40;;;13.85;;
39882;SDS011;55824;52.220;21.040;2023-03-01T06:43:42;18.05;;;14.32;;
39882;SDS011;55824;52.220;21.040;2023-03-01T06:46:08;16.35;;;13.20;;
39882;SDS011;55824;52.220;21.040;2023-03-01T06:48:34;17.02;;;13.13;;
39882;SDS011;55824;52.220;21.040;2023-03-01T06:51:00;18.38;;;14.10;;
39882;SDS011;55824;52.220;21.040;2023-03-01T06:53:27;18.00;;;14.73;;
39882;SDS011;55824;52.220;21.040;2023-03-01T06:55:54;19.05;;;14.23;;
39882;SDS011;55824;52.220;21.040;2023-03-01T06:58:20;17.85;;;14.35;;
39882;SDS011;55824;52.220;21.040;2023-03-01T07:00:46;20.08;;;14.50;;
39882;SDS011;55824;52.220;21.040;2023-03-01T07:03:12;17.30;;;13.82;;
39882;SDS011;55824;52.220;21.040;2023-03-01T07:05:38;18.77;;;14.88;;
39882;SDS011;55824;52.220;21.040;2023-03-01T07:08:04;19.05;;;14.73;;
39882;SDS011;55824;52.220;21.040;2023-03-01T07:10:30;16.92;;;14.10;;
39882;SDS011;55824;52.220;21.040;2023-03-01T07:12:56;17.27;;;14.73;;
39882;SDS011;55824;52.220;21.040;2023-03-01T07:15:22;18.98;;;14.38;;
39882;SDS011;55824;52.220;21.040;2023-03-01T07:17:48;18.13;;;13.77;;
39882;SDS011;55824;52.220;21.040;2023-03-01T07:20:15;19.40;;;14.75;;
39882;SDS011;55824;52.220;21.040;2023-03-01T07:22:41;17.35;;;13.50;;
39882;SDS011;55824;52.220;21.040;2023-03-01T07:25:08;16.10;;;13.35;;
39882;SDS011;55824;52.220;21.040;2023-03-01T07:27:34;19.15;;;13.93;;
39882;SDS011;55824;52.220;21.040;2023-03-01T07:30:00;16.95;;;13.07;;
39882;SDS011;55824;52.220;21.040;2023-03-01T07:32:26;17.27;;;14.25;;
39882;SDS011;55824;52.220;21.040;2023-03-01T07:34:52;16.30;;;13.82;;
39882;SDS011;55824;52.220;21.040;2023-03-01T07:37:18;16.10;;;13.95;;
39882;SDS011;55824;52.220;21.040;2023-03-01T07:39:44;20.05;;;14.13;;
39882;SDS011;55824;52.220;21.040;2023-03-01T07:42:10;19.08;;;14.40;;
39882;SDS011;55824;52.220;21.040;2023-03-01T07:44:36;18.45;;;13.88;;
39882;SDS011;55824;52.220;21.040;2023-03-01T07:47:03;19.08;;;14.10;;
39882;SDS011;55824;52.220;21.040;2023-03-01T07:49:29;17.10;;;13.35;;
39882;SDS011;55824;52.220;21.040;2023-03-01T07:51:55;18.00;;;13.77;;
39882;SDS011;55824;52.220;21.040;2023-03-01T07:54:21;16.67;;;13.75;;
39882;SDS011;55824;52.220;21.040;2023-03-01T07:56:47;18.25;;;13.77;;
39882;SDS011;55824;52.220;21.040;2023-03-01T07:59:13;17.90;;;13.38;;
39882;SDS011;55824;52.220;21.040;2023-03-01T08:01:39;18.33;;;13.50;;
39882;SDS011;55824;52.220;21.040;2023-03-01T08:04:05;16.45;;;13.32;;
39882;SDS011;55824;52.220;21.040;2023-03-01T08:06:33;16.10;;;12.48;;
39882;SDS011;55824;52.220;21.040;2023-03-01T08:08:59;17.50;;;13.02;;
39882;SDS011;55824;52.220;21.040;2023-03-01T08:11:25;18.48;;;13.55;;
39882;SDS011;55824;52.220;21.040;2023-03-01T08:13:53;16.58;;;12.45;;
39882;SDS011;55824;52.220;21.040;2023-03-01T08:16:19;17.42;;;12.20;;
39882;SDS011;55824;52.220;21.040;2023-03-01T08:18:45;15.63;;;12.80;;
39882;SDS011;55824;52.220;21.040;2023-03-01T08:21:13;16.25;;;13.15;;
39882;SDS011;55824;52.220;21.040;2023-03-01T08:23:39;14.57;;;11.98;;
39882;SDS011;55824;52.220;21.040;2023-03-01T08:26:10;17.20;;;12.40;;
39882;SDS011;55824;52.220;21.040;2023-03-01T08:28:37;16.80;;;12.15;;
39882;SDS011;55824;52.220;21.040;2023-03-01T08:31:12;17.73;;;12.68;;
39882;SDS011;55824;52.220;21.040;2023-03-01T08:33:38;15.07;;;12.15;;
39882;SDS011;55824;52.220;21.040;2023-03-01T08:36:05;15.68;;;12.40;;
39882;SDS011;55824;52.220;21.040;2023-03-01T08:38:31;17.23;;;11.88;;
39882;SDS011;55824;52.220;21.040;2023-03-01T08:41:01;15.90;;;12.35;;
39882;SDS011;55824;52.220;21.040;2023-03-01T08:43:27;15.90;;;12.38;;
39882;SDS011;55824;52.220;21.040;2023-03-01T08:45:53;17.10;;;11.77;;
39882;SDS011;55824;52.220;21.040;2023-03-01T08:48:19;14.77;;;12.07;;
39882;SDS011;55824;52.220;21.040;2023-03-01T08:50:45;15.55;;;11.80;;
39882;SDS011;55824;52.220;21.040;2023-03-01T08:53:11;15.75;;;11.88;;
39882;SDS011;55824;52.220;21.040;2023-03-01T08:55:37;15.95;;;11.98;;
39882;SDS011;55824;52.220;21.040;2023-03-01T08:58:03;14.30;;;11.50;;
39882;SDS011;55824;52.220;21.040;2023-03-01T09:00:29;16.83;;;11.27;;
39882;SDS011;55824;52.220;21.040;2023-03-01T09:02:55;15.57;;;11.10;;
39882;SDS011;55824;52.220;21.040;2023-03-01T09:05:21;14.68;;;11.05;;
39882;SDS011;55824;52.220;21.040;2023-03-01T09:07:47;15.43;;;11.20;;
39882;SDS011;55824;52.220;21.040;2023-03-01T09:10:13;12.70;;;10.98;;
39882;SDS011;55824;52.220;21.040;2023-03-01T09:12:39;12.85;;;10.93;;
39882;SDS011;55824;52.220;21.040;2023-03-01T09:15:05;14.30;;;10.40;;
39882;SDS011;55824;52.220;21.040;2023-03-01T09:17:31;13.55;;;10.70;;
39882;SDS011;55824;52.220;21.040;2023-03-01T09:19:57;13.68;;;10.45;;
39882;SDS011;55824;52.220;21.040;2023-03-01T09:22:24;13.02;;;10.00;;
39882;SDS011;55824;52.220;21.040;2023-03-01T09:24:50;14.73;;;10.50;;
39882;SDS011;55824;52.220;21.040;2023-03-01T09:27:16;14.05;;;10.23;;
39882;SDS011;55824;52.220;21.040;2023-03-01T09:29:44;14.52;;;10.93;;
39882;SDS011;55824;52.220;21.040;2023-03-01T09:32:10;13.57;;;9.70;;
39882;SDS011;55824;52.220;21.040;2023-03-01T09:34:36;13.50;;;10.13;;
39882;SDS011;55824;52.220;21.040;2023-03-01T09:37:20;12.38;;;9.57;;
39882;SDS011;55824;52.220;21.040;2023-03-01T09:39:46;13.57;;;10.15;;
39882;SDS011;55824;52.220;21.040;2023-03-01T09:42:12;12.45;;;10.18;;
39882;SDS011;55824;52.220;21.040;2023-03-01T09:44:49;12.80;;;9.07;;
39882;SDS011;55824;52.220;21.040;2023-03-01T09:49:43;13.30;;;9.57;;
39882;SDS011;55824;52.220;21.040;2023-03-01T09:54:58;11.48;;;9.02;;
39882;SDS011;55824;52.220;21.040;2023-03-01T09:57:33;13.68;;;9.25;;
39882;SDS011;55824;52.220;21.040;2023-03-01T10:02:38;12.93;;;9.38;;
39882;SDS011;55824;52.220;21.040;2023-03-01T10:05:19;13.05;;;9.30;;
39882;SDS011;55824;52.220;21.040;2023-03-01T10:12:50;13.02;;;9.15;;
39882;SDS011;55824;52.220;21.040;2023-03-01T10:18:04;12.27;;;9.38;;
39882;SDS011;55824;52.220;21.040;2023-03-01T10:23:08;12.38;;;8.43;;
39882;SDS011;55824;52.220;21.040;2023-03-01T10:25:38;12.02;;;9.18;;
39882;SDS011;55824;52.220;21.040;2023-03-01T10:29:09;14.18;;;9.30;;
39882;SDS011;55824;52.220;21.040;2023-03-01T10:31:03;12.10;;;9.52;;
39882;SDS011;55824;52.220;21.040;2023-03-01T10:33:30;13.02;;;9.30;;
39882;SDS011;55824;52.220;21.040;2023-03-01T10:35:57;11.40;;;8.85;;
39882;SDS011;55824;52.220;21.040;2023-03-01T10:38:23;12.57;;;9.20;;
39882;SDS011;55824;52.220;21.040;2023-03-01T10:41:10;12.55;;;9.75;;
39882;SDS011;55824;52.220;21.040;2023-03-01T10:43:49;11.65;;;8.73;;
39882;SDS011;55824;52.220;21.040;2023-03-01T10:46:26;12.90;;;9.18;;
39882;SDS011;55824;52.220;21.040;2023-03-01T10:51:36;10.45;;;8.48;;
39882;SDS011;55824;52.220;21.040;2023-03-01T10:54:03;11.68;;;8.73;;
39882;SDS011;55824;52.220;21.040;2023-03-01T10:56:30;10.18;;;8.07;;
39882;SDS011;55824;52.220;21.040;2023-03-01T10:59:19;11.18;;;8.32;;
39882;SDS011;55824;52.220;21.040;2023-03-01T11:01:49;11.88;;;8.07;;
39882;SDS011;55824;52.220;21.040;2023-03-01T11:04:26;10.80;;;8.48;;
39882;SDS011;55824;52.220;21.040;2023-03-01T11:06:57;10.20;;;8.18;;
39882;SDS011;55824;52.220;21.040;2023-03-01T11:09:24;11.35;;;8.25;;
39882;SDS011;55824;52.220;21.040;2023-03-01T11:14:26;10.73;;;8.30;;
39882;SDS011;55824;52.220;21.040;2023-03-01T11:17:00;9.57;;;7.53;;
39882;SDS011;55824;52.220;21.040;2023-03-01T11:19:26;11.63;;;8.00;;
39882;SDS011;55824;52.220;21.040;2023-03-01T11:24:23;8.93;;;7.60;;
39882;SDS011;55824;52.220;21.040;2023-03-01T11:26:53;10.55;;;7.88;;
39882;SDS011;55824;52.220;21.040;2023-03-01T11:32:05;9.90;;;7.60;;
39882;SDS011;55824;52.220;21.040;2023-03-01T11:34:40;10.30;;;7.72;;
39882;SDS011;55824;52.220;21.040;2023-03-01T11:37:43;11.02;;;7.78;;
39882;SDS011;55824;52.220;21.040;2023-03-01T11:44:59;9.48;;;7.35;;
39882;SDS011;55824;52.220;21.040;2023-03-01T11:47:50;11.10;;;7.75;;
39882;SDS011;55824;52.220;21.040;2023-03-01T11:50:55;9.88;;;7.28;;
39882;SDS011;55824;52.220;21.040;2023-03-01T11:55:57;10.80;;;7.47;;
39882;SDS011;55824;52.220;21.040;2023-03-01T11:58:31;9.68;;;6.65;;
39882;SDS011;55824;52.220;21.040;2023-03-01T12:01:02;10.60;;;7.50;;
39882;SDS011;55824;52.220;21.040;2023-03-01T12:09:17;9.38;;;7.03;;
39882;SDS011;55824;52.220;21.040;2023-03-01T12:12:00;9.48;;;6.75;;
39882;SDS011;55824;52.220;21.040;2023-03-01T12:35:13;8.07;;;5.97;;
39882;SDS011;55824;52.220;21.040;2023-03-01T12:43:08;9.00;;;6.30;;
39882;SDS011;55824;52.220;21.040;2023-03-01T12:50:41;7.95;;;6.18;;
39882;SDS011;55824;52.220;21.040;2023-03-01T12:53:18;9.38;;;6.05;;
39882;SDS011;55824;52.220;21.040;2023-03-01T12:55:45;7.57;;;5.78;;
39882;SDS011;55824;52.220;21.040;2023-03-01T13:06:31;8.50;;;6.38;;
39882;SDS011;55824;52.220;21.040;2023-03-01T13:11:46;8.90;;;6.35;;
39882;SDS011;55824;52.220;21.040;2023-03-01T13:16:48;8.40;;;6.15;;
39882;SDS011;55824;52.220;21.040;2023-03-01T13:19:15;9.02;;;5.68;;
39882;SDS011;55824;52.220;21.040;2023-03-01T13:21:42;7.50;;;5.47;;
39882;SDS011;55824;52.220;21.040;2023-03-01T13:32:31;8.80;;;5.85;;
39882;SDS011;55824;52.220;21.040;2023-03-01T13:34:59;7.97;;;5.78;;
39882;SDS011;55824;52.220;21.040;2023-03-01T13:37:29;7.82;;;5.80;;
39882;SDS011;55824;52.220;21.040;2023-03-01T13:39:57;10.18;;;6.32;;
39882;SDS011;55824;52.220;21.040;2023-03-01T13:42:37;8.15;;;5.78;;
39882;SDS011;55824;52.220;21.040;2023-03-01T13:45:05;8.20;;;5.55;;
39882;SDS011;55824;52.220;21.040;2023-03-01T13:47:31;7.57;;;5.25;;
39882;SDS011;55824;52.220;21.040;2023-03-01T13:50:00;7.85;;;5.13;;
39882;SDS011;55824;52.220;21.040;2023-03-01T13:54:52;6.93;;;5.22;;
39882;SDS011;55824;52.220;21.040;2023-03-01T13:57:20;7.32;;;5.32;;
39882;SDS011;55824;52.220;21.040;2023-03-01T13:59:47;7.53;;;5.43;;
39882;SDS011;55824;52.220;21.040;2023-03-01T14:02:13;9.65;;;5.57;;
39882;SDS011;55824;52.220;21.040;2023-03-01T14:04:40;7.80;;;5.32;;
39882;SDS011;55824;52.220;21.040;2023-03-01T14:07:19;7.97;;;5.95;;
39882;SDS011;55824;52.220;21.040;2023-03-01T14:09:47;10.77;;;6.07;;
39882;SDS011;55824;52.220;21.040;2023-03-01T14:19:35;7.45;;;5.15;;
39882;SDS011;55824;52.220;21.040;2023-03-01T14:24:38;7.55;;;5.53;;
39882;SDS011;55824;52.220;21.040;2023-03-01T14:27:09;7.60;;;5.35;;
39882;SDS011;55824;52.220;21.040;2023-03-01T14:29:37;7.10;;;4.97;;
39882;SDS011;55824;52.220;21.040;2023-03-01T14:32:10;7.43;;;4.95;;
39882;SDS011;55824;52.220;21.040;2023-03-01T14:34:36;7.03;;;4.88;;
39882;SDS011;55824;52.220;21.040;2023-03-01T14:39:46;7.30;;;5.22;;
39882;SDS011;55824;52.220;21.040;2023-03-01T14:42:12;9.00;;;5.13;;
39882;SDS011;55824;52.220;21.040;2023-03-01T14:44:40;6.15;;;4.82;;
39882;SDS011;55824;52.220;21.040;2023-03-01T14:47:10;7.05;;;4.93;;
39882;SDS011;55824;52.220;21.040;2023-03-01T14:49:38;7.55;;;5.55;;
39882;SDS011;55824;52.220;21.040;2023-03-01T14:52:05;6.63;;;4.70;;
39882;SDS011;55824;52.220;21.040;2023-03-01T14:54:41;8.38;;;4.70;;
39882;SDS011;55824;52.220;21.040;2023-03-01T14:57:15;7.53;;;5.22;;
39882;SDS011;55824;52.220;21.040;2023-03-01T14:59:41;6.72;;;4.50;;
39882;SDS011;55824;52.220;21.040;2023-03-01T15:02:08;6.38;;;4.78;;
39882;SDS011;55824;52.220;21.040;2023-03-01T15:04:37;6.65;;;4.70;;
39882;SDS011;55824;52.220;21.040;2023-03-01T15:07:03;6.97;;;4.45;;
39882;SDS011;55824;52.220;21.040;2023-03-01T15:09:29;7.43;;;4.85;;
39882;SDS011;55824;52.220;21.040;2023-03-01T15:11:57;6.03;;;4.53;;
39882;SDS011;55824;52.220;21.040;2023-03-01T15:14:57;6.90;;;4.88;;
39882;SDS011;55824;52.220;21.040;2023-03-01T15:17:21;6.15;;;4.53;;
39882;SDS011;55824;52.220;21.040;2023-03-01T15:19:49;6.07;;;4.47;;
39882;SDS011;55824;52.220;21.040;2023-03-01T15:22:15;7.00;;;5.10;;
39882;SDS011;55824;52.220;21.040;2023-03-01T15:24:41;7.40;;;4.82;;
39882;SDS011;55824;52.220;21.040;2023-03-01T15:27:19;6.47;;;4.60;;
39882;SDS011;55824;52.220;21.040;2023-03-01T15:29:56;6.70;;;5.15;;
39882;SDS011;55824;52.220;21.040;2023-03-01T15:34:48;6.13;;;4.45;;
39882;SDS011;55824;52.220;21.040;2023-03-01T15:40:28;7.38;;;4.82;;
39882;SDS011;55824;52.220;21.040;2023-03-01T15:43:02;7.93;;;4.65;;
39882;SDS011;55824;52.220;21.040;2023-03-01T15:45:29;8.35;;;4.53;;
39882;SDS011;55824;52.220;21.040;2023-03-01T15:47:58;7.30;;;5.68;;
39882;SDS011;55824;52.220;21.040;2023-03-01T15:52:53;6.80;;;4.68;;
39882;SDS011;55824;52.220;21.040;2023-03-01T15:55:20;5.60;;;4.30;;
39882;SDS011;55824;52.220;21.040;2023-03-01T15:57:47;7.10;;;4.57;;
39882;SDS011;55824;52.220;21.040;2023-03-01T16:00:14;5.63;;;4.28;;
39882;SDS011;55824;52.220;21.040;2023-03-01T16:02:41;5.63;;;4.30;;
39882;SDS011;55824;52.220;21.040;2023-03-01T16:05:14;8.13;;;4.60;;
39882;SDS011;55824;52.220;21.040;2023-03-01T16:07:42;6.28;;;4.45;;
39882;SDS011;55824;52.220;21.040;2023-03-01T16:10:08;6.15;;;4.35;;
39882;SDS011;55824;52.220;21.040;2023-03-01T16:12:34;7.10;;;4.45;;
39882;SDS011;55824;52.220;21.040;2023-03-01T16:15:00;8.02;;;4.40;;
39882;SDS011;55824;52.220;21.040;2023-03-01T16:17:27;6.10;;;4.18;;
39882;SDS011;55824;52.220;21.040;2023-03-01T16:19:53;7.40;;;4.93;;
39882;SDS011;55824;52.220;21.040;2023-03-01T16:22:19;6.85;;;4.60;;
39882;SDS011;55824;52.220;21.040;2023-03-01T16:24:49;5.93;;;4.40;;
39882;SDS011;55824;52.220;21.040;2023-03-01T16:27:15;6.43;;;4.50;;
39882;SDS011;55824;52.220;21.040;2023-03-01T16:29:41;6.57;;;4.35;;
39882;SDS011;55824;52.220;21.040;2023-03-01T16:32:07;7.43;;;4.45;;
39882;SDS011;55824;52.220;21.040;2023-03-01T16:37:20;6.70;;;4.65;;
39882;SDS011;55824;52.220;21.040;2023-03-01T16:39:46;7.63;;;4.72;;
39882;SDS011;55824;52.220;21.040;2023-03-01T16:42:15;6.60;;;4.53;;